Airfield :
LOGIN :

Register | Disclaimer

   EN    FR    IT 

 










Legend :    VFR   Marginal VFR   IFR   Intensive IFR   Very Intensive IFR
Visi :
Ceiling :
>= 8 km
>= 3000ft
5 to 8 km
1000 to 3000 ft
1500m to 5 km
500 to 1000 ft
800 to 1500m
200 to 500 ft
< 800m
< 200 ft
Symbols :   Thunderstorms  Fog  Heavy snow  Heavy precipitations  Wind > 20 kt
SIGMETs :     Misc.  Thunderstorms  Icing  Turbulence  Mountain Waves  Volcanic Ashes







- Airport Elevation : 44 ft
- IATA code : SOU
- Download approach charts


EGHI - Southampton

CURRENT METAR :
  • 281620Z 22016G26KT 190V250 8000 SCT013 BKN025 17/14 Q1009

EXPIRED METARs :
  • 281550Z 22016KT 180V240 7000 SCT013 BKN025 16/14 Q1009
  • 281520Z 21015KT 170V250 8000 SCT013 BKN025 15/13 Q1010
  • 281450Z 22016KT 190V250 8000 SCT013 BKN035 16/13 Q1010
  • 281420Z 22010KT 190V250 5000 -RA FEW007 BKN013 15/13 Q1010
  • 281350Z 23013KT 190V260 6000 -RA FEW009 BKN015 15/13 Q1010

TAF TAF EGHI
Valid from the 28 at 09:00 until the 28 at 18:00 UTC


280755Z 2809/2818 23009KT 9999 SCT030
PROB40
TEMPO 2809/2818 23015G25KT 7000 RA BKN014
ATIS : +44 23 8062 7103
No reported NOTAMs for that airfield.



MET'MAP, your aeronautical weather chart ! - Copyright ORBIFLY December 2007 - Disclaimer

ORBIFLY MET'MAP TEAM :

Programming & Development : Alexandra Zaïnal
Concept & Development : Baudouin d'Aumeries
Co-Development & Prog : Marc-Olivier Méhu
Technical & hardware support : Manuel Goepfert

Contact : metmap@orbifly.com




SOURCES & CREDITS :

   NOAA